createdAt,value
2022-08-29T00:01:01.663Z,7.38
2022-08-29T00:02:05.406Z,7.07
2022-08-29T00:03:08.832Z,7.40
2022-08-29T00:04:11.278Z,7.15
2022-08-29T00:05:13.762Z,6.20
2022-08-29T00:06:16.182Z,6.55
2022-08-29T00:07:18.730Z,7.05
2022-08-29T00:08:21.348Z,7.22
2022-08-29T00:09:23.612Z,6.80
2022-08-29T00:10:27.308Z,6.97
2022-08-29T00:11:30.034Z,6.65
2022-08-29T00:12:32.430Z,7.53
2022-08-29T00:13:35.314Z,6.47
2022-08-29T00:14:37.618Z,6.22
2022-08-29T00:15:44.382Z,7.10
2022-08-29T00:16:47.538Z,6.63
2022-08-29T00:17:50.950Z,6.72
2022-08-29T00:18:53.235Z,6.95
2022-08-29T00:19:55.484Z,7.22
2022-08-29T00:20:57.782Z,7.28
2022-08-29T00:22:00.159Z,7.38
2022-08-29T00:23:04.595Z,7.03
2022-08-29T00:24:07.330Z,6.53
2022-08-29T00:25:12.754Z,8.15
2022-08-29T00:26:15.017Z,6.50
2022-08-29T00:27:17.322Z,6.82
2022-08-29T00:28:19.563Z,7.28
2022-08-29T00:29:21.848Z,7.00
2022-08-29T00:30:25.247Z,6.75
2022-08-29T00:31:28.226Z,7.47
2022-08-29T00:32:34.998Z,7.30
2022-08-29T00:33:39.274Z,6.65
2022-08-29T00:34:41.759Z,6.57
2022-08-29T00:35:45.199Z,6.70
2022-08-29T00:36:49.331Z,7.10
2022-08-29T00:37:54.570Z,6.45
2022-08-29T00:38:57.217Z,7.38
2022-08-29T00:40:01.497Z,7.20
2022-08-29T00:41:04.588Z,7.90
2022-08-29T00:42:07.082Z,7.13
2022-08-29T00:43:10.424Z,6.90
2022-08-29T00:44:12.817Z,6.20
2022-08-29T00:45:17.690Z,7.28
2022-08-29T00:46:28.622Z,8.05
2022-08-29T00:47:34.275Z,7.20
2022-08-29T00:48:39.057Z,8.45
2022-08-29T00:49:42.768Z,7.18
2022-08-29T00:50:59.169Z,7.72
2022-08-29T00:52:11.053Z,7.93
2022-08-29T00:53:16.889Z,7.38
2022-08-29T00:54:19.444Z,7.43
2022-08-29T00:55:25.522Z,6.60
2022-08-29T00:56:29.550Z,6.60
2022-08-29T00:57:32.524Z,6.07
2022-08-29T00:58:49.980Z,6.25
2022-08-29T00:59:52.838Z,5.75
2022-08-29T01:00:55.255Z,5.65
2022-08-29T01:01:58.305Z,5.25
2022-08-29T01:03:00.670Z,4.97
2022-08-29T01:04:03.597Z,5.88
2022-08-29T01:05:13.081Z,5.38
2022-08-29T01:06:15.648Z,5.13
2022-08-29T01:07:17.994Z,5.40
2022-08-29T01:08:20.433Z,6.00
2022-08-29T01:09:25.057Z,5.80
2022-08-29T01:10:46.313Z,5.30
2022-08-29T01:12:07.288Z,5.82
2022-08-29T01:13:11.425Z,6.13
2022-08-29T01:14:15.273Z,5.30
2022-08-29T01:15:17.974Z,5.38
2022-08-29T01:16:22.699Z,5.80
2022-08-29T01:17:30.914Z,5.68
2022-08-29T01:18:36.713Z,6.32
2022-08-29T01:19:54.641Z,5.20
2022-08-29T01:21:05.853Z,5.78
2022-08-29T01:22:34.920Z,5.85
2022-08-29T01:23:47.628Z,5.50
2022-08-29T01:24:52.508Z,4.80
2022-08-29T01:25:56.059Z,5.47
2022-08-29T01:26:58.345Z,5.13
2022-08-29T01:28:18.100Z,5.05
2022-08-29T01:29:20.406Z,4.70
2022-08-29T01:30:22.743Z,5.32
2022-08-29T01:31:51.472Z,5.38
2022-08-29T01:34:00.712Z,5.47
2022-08-29T01:35:05.510Z,5.07
2022-08-29T01:36:10.648Z,5.13
2022-08-29T01:37:14.835Z,5.63
2022-08-29T01:38:27.503Z,6.00
2022-08-29T01:39:35.774Z,5.82
2022-08-29T01:40:38.198Z,5.03
2022-08-29T01:41:42.105Z,4.90
2022-08-29T01:42:44.436Z,4.90
2022-08-29T01:43:49.714Z,4.93
2022-08-29T01:44:58.397Z,5.32
2022-08-29T01:46:00.900Z,4.82
2022-08-29T01:47:05.369Z,5.00
2022-08-29T01:48:08.019Z,4.72
2022-08-29T01:49:11.487Z,5.35
2022-08-29T01:50:15.574Z,4.97
2022-08-29T01:51:18.745Z,5.40
2022-08-29T01:52:21.429Z,5.93
2022-08-29T01:53:24.203Z,5.20
2022-08-29T01:54:27.068Z,6.43
2022-08-29T01:55:29.433Z,5.38
2022-08-29T01:56:34.439Z,5.07
2022-08-29T01:57:38.757Z,5.68
2022-08-29T01:58:42.119Z,4.97
2022-08-29T01:59:45.457Z,5.03
2022-08-29T02:00:47.800Z,4.90
2022-08-29T02:02:19.877Z,5.07
2022-08-29T02:03:22.174Z,4.95
2022-08-29T02:04:24.412Z,4.65
2022-08-29T02:05:30.523Z,4.20
2022-08-29T02:06:33.946Z,4.22
2022-08-29T02:07:36.191Z,4.40
2022-08-29T02:08:39.812Z,5.45
2022-08-29T02:09:45.595Z,3.95
2022-08-29T02:10:48.193Z,5.28
2022-08-29T02:11:50.472Z,4.78
2022-08-29T02:12:54.182Z,5.15
2022-08-29T02:13:58.371Z,5.47
2022-08-29T02:15:01.098Z,4.70
2022-08-29T02:16:04.105Z,4.10
2022-08-29T02:17:08.010Z,4.65
2022-08-29T02:18:10.527Z,4.75
2022-08-29T02:19:12.760Z,4.50
2022-08-29T02:20:15.289Z,5.43
2022-08-29T02:21:19.667Z,5.28
2022-08-29T02:22:22.706Z,4.72
2022-08-29T02:23:31.042Z,4.47
2022-08-29T02:24:33.954Z,4.43
2022-08-29T02:25:42.229Z,4.68
2022-08-29T02:26:44.791Z,5.47
2022-08-29T02:27:47.045Z,4.53
2022-08-29T02:28:50.533Z,5.35
2022-08-29T02:29:53.039Z,4.97
2022-08-29T02:30:56.913Z,5.05
2022-08-29T02:31:59.420Z,4.95
2022-08-29T02:33:04.099Z,4.60
2022-08-29T02:34:08.885Z,4.93
2022-08-29T02:35:14.838Z,4.65
2022-08-29T02:36:19.670Z,4.85
2022-08-29T02:37:22.077Z,4.38
2022-08-29T02:38:25.183Z,4.82
2022-08-29T02:39:27.471Z,4.88
2022-08-29T02:40:31.477Z,4.75
2022-08-29T02:41:34.336Z,5.40
2022-08-29T02:42:36.647Z,4.93
2022-08-29T02:43:38.969Z,4.68
2022-08-29T02:44:41.186Z,4.43
2022-08-29T02:45:43.974Z,5.18
2022-08-29T02:46:46.385Z,4.80
2022-08-29T02:47:48.857Z,5.00
2022-08-29T02:48:58.221Z,5.00
2022-08-29T02:50:10.087Z,4.90
2022-08-29T02:51:23.153Z,5.22
2022-08-29T02:53:33.937Z,5.43
2022-08-29T02:54:36.197Z,5.10
2022-08-29T02:55:38.850Z,5.35
2022-08-29T02:56:41.995Z,5.05
2022-08-29T02:57:45.366Z,4.97
2022-08-29T02:58:50.495Z,4.95
2022-08-29T02:59:52.990Z,5.10
2022-08-29T03:00:56.600Z,4.45
2022-08-29T03:01:59.244Z,4.75
2022-08-29T03:03:02.756Z,5.13
2022-08-29T03:04:05.337Z,4.80
2022-08-29T03:05:07.986Z,5.07
2022-08-29T03:06:10.431Z,4.53
2022-08-29T03:07:12.710Z,4.82
2022-08-29T03:08:15.083Z,5.18
2022-08-29T03:09:17.549Z,4.82
2022-08-29T03:10:20.549Z,5.13
2022-08-29T03:11:23.587Z,4.70
2022-08-29T03:12:25.869Z,4.85
2022-08-29T03:13:30.542Z,5.10
2022-08-29T03:14:32.911Z,5.18
2022-08-29T03:15:35.279Z,4.85
2022-08-29T03:16:37.646Z,4.88
2022-08-29T03:17:40.321Z,4.93
2022-08-29T03:18:42.939Z,5.05
2022-08-29T03:19:45.247Z,5.15
2022-08-29T03:20:48.079Z,4.97
2022-08-29T03:21:52.112Z,5.22
2022-08-29T03:22:54.960Z,4.88
2022-08-29T03:23:57.398Z,5.25
2022-08-29T03:25:03.685Z,5.60
2022-08-29T03:26:06.268Z,4.68
2022-08-29T03:27:08.441Z,4.60
2022-08-29T03:28:10.728Z,4.78
2022-08-29T03:29:13.030Z,5.15
2022-08-29T03:30:16.978Z,5.13
2022-08-29T03:31:19.772Z,5.60
2022-08-29T03:32:22.130Z,5.70
2022-08-29T03:33:24.861Z,5.57
2022-08-29T03:34:28.415Z,5.15
2022-08-29T03:35:31.500Z,5.70
2022-08-29T03:36:34.131Z,5.00
2022-08-29T03:37:36.495Z,5.30
2022-08-29T03:38:39.330Z,5.72
2022-08-29T03:39:41.582Z,6.00
2022-08-29T03:40:43.923Z,5.32
2022-08-29T03:41:46.796Z,5.43
2022-08-29T03:42:49.089Z,4.80
2022-08-29T03:43:51.786Z,5.75
2022-08-29T03:44:54.067Z,5.38
2022-08-29T03:45:56.281Z,4.78
2022-08-29T03:46:58.663Z,5.63
2022-08-29T03:48:00.929Z,5.65
2022-08-29T03:49:23.471Z,5.10
2022-08-29T03:50:25.785Z,6.25
2022-08-29T03:51:29.374Z,6.32
2022-08-29T03:52:31.904Z,6.18
2022-08-29T03:53:34.202Z,5.55
2022-08-29T03:54:38.773Z,5.30
2022-08-29T03:55:41.427Z,5.65
2022-08-29T03:56:43.754Z,4.97
2022-08-29T03:57:46.377Z,5.40
2022-08-29T03:58:52.821Z,5.40
2022-08-29T03:59:56.351Z,5.03
2022-08-29T04:00:59.155Z,5.32
2022-08-29T04:02:01.653Z,5.47
2022-08-29T04:03:04.082Z,4.85
2022-08-29T04:04:06.464Z,5.53
2022-08-29T04:05:09.702Z,5.43
2022-08-29T04:06:12.232Z,5.97
2022-08-29T04:07:14.884Z,5.57
2022-08-29T04:08:17.182Z,6.03
2022-08-29T04:09:19.890Z,5.90
2022-08-29T04:10:32.034Z,6.93
2022-08-29T04:11:34.274Z,5.75
2022-08-29T04:12:37.204Z,5.63
2022-08-29T04:13:39.659Z,5.25
2022-08-29T04:14:42.723Z,5.75
2022-08-29T04:15:45.025Z,5.35
2022-08-29T04:16:51.866Z,5.60
2022-08-29T04:17:57.500Z,5.60
2022-08-29T04:19:00.758Z,5.93
2022-08-29T04:20:05.059Z,6.65
2022-08-29T04:21:09.672Z,6.07
2022-08-29T04:22:13.664Z,5.93
2022-08-29T04:23:16.070Z,5.78
2022-08-29T04:24:19.707Z,5.80
2022-08-29T04:25:25.109Z,5.80
2022-08-29T04:26:36.534Z,5.50
2022-08-29T04:27:39.845Z,5.47
2022-08-29T04:28:42.090Z,5.45
2022-08-29T04:29:48.194Z,5.60
2022-08-29T04:30:52.881Z,5.57
2022-08-29T04:31:55.249Z,5.35
2022-08-29T04:32:57.541Z,5.50
2022-08-29T04:33:59.936Z,5.53
2022-08-29T04:35:02.626Z,6.13
2022-08-29T04:36:06.128Z,5.95
2022-08-29T04:37:08.456Z,6.70
2022-08-29T04:38:10.803Z,5.70
2022-08-29T04:39:14.956Z,6.35
2022-08-29T04:40:20.626Z,5.78
2022-08-29T04:41:22.858Z,6.75
2022-08-29T04:42:25.938Z,6.53
2022-08-29T04:43:28.196Z,5.93
2022-08-29T04:44:30.481Z,7.00
2022-08-29T04:45:33.456Z,6.40
2022-08-29T04:46:35.776Z,6.47
2022-08-29T04:47:39.015Z,5.80
2022-08-29T04:48:41.293Z,6.15
2022-08-29T04:49:44.001Z,6.32
2022-08-29T04:50:52.827Z,5.50
2022-08-29T04:51:55.167Z,5.57
2022-08-29T04:52:57.574Z,5.55
2022-08-29T04:53:59.896Z,5.57
2022-08-29T04:55:02.184Z,6.18
2022-08-29T04:56:07.709Z,5.75
2022-08-29T04:57:10.142Z,6.00
2022-08-29T04:58:13.720Z,5.80
2022-08-29T04:59:17.134Z,6.05
2022-08-29T05:00:23.314Z,6.45
2022-08-29T05:01:27.086Z,6.72
2022-08-29T05:02:30.496Z,6.10
2022-08-29T05:03:33.846Z,5.93
2022-08-29T05:04:36.219Z,6.07
2022-08-29T05:05:38.488Z,6.25
2022-08-29T05:06:41.215Z,5.53
2022-08-29T05:07:45.177Z,5.20
2022-08-29T05:08:47.705Z,6.07
2022-08-29T05:10:07.053Z,5.57
2022-08-29T05:11:22.623Z,5.38
2022-08-29T05:12:26.037Z,5.40
2022-08-29T05:13:28.307Z,5.32
2022-08-29T05:14:30.558Z,5.28
2022-08-29T05:15:32.921Z,6.20
2022-08-29T05:16:37.198Z,6.13
2022-08-29T05:17:39.681Z,5.20
2022-08-29T05:18:44.144Z,5.43
2022-08-29T05:19:46.363Z,5.18
2022-08-29T05:20:48.953Z,5.75
2022-08-29T05:21:57.261Z,5.10
2022-08-29T05:22:59.563Z,4.90
2022-08-29T05:24:02.905Z,5.13
2022-08-29T05:25:06.219Z,4.55
2022-08-29T05:26:08.469Z,4.78
2022-08-29T05:27:14.393Z,4.93
2022-08-29T05:28:16.769Z,4.93
2022-08-29T05:29:20.311Z,4.60
2022-08-29T05:30:34.216Z,4.65
2022-08-29T05:31:41.022Z,5.47
2022-08-29T05:32:43.791Z,4.88
2022-08-29T05:33:46.029Z,4.90
2022-08-29T05:34:49.567Z,4.78
2022-08-29T05:35:51.962Z,5.07
2022-08-29T05:36:54.561Z,4.65
2022-08-29T05:37:56.814Z,5.05
2022-08-29T05:39:00.394Z,4.97
2022-08-29T05:40:03.589Z,4.57
2022-08-29T05:41:07.441Z,4.25
2022-08-29T05:42:12.201Z,4.90
2022-08-29T05:43:14.739Z,4.22
2022-08-29T05:44:17.047Z,4.50
2022-08-29T05:45:19.330Z,4.55
2022-08-29T05:46:21.711Z,4.75
2022-08-29T05:47:24.079Z,4.68
2022-08-29T05:48:26.382Z,5.20
2022-08-29T05:49:28.814Z,5.40
2022-08-29T05:50:31.384Z,5.03
2022-08-29T05:51:38.856Z,4.25
2022-08-29T05:52:41.797Z,4.60
2022-08-29T05:53:44.943Z,4.32
2022-08-29T05:54:47.631Z,4.55
2022-08-29T05:55:49.952Z,4.45
2022-08-29T05:56:52.730Z,4.55
2022-08-29T05:57:55.166Z,4.45
2022-08-29T05:58:57.490Z,4.50
2022-08-29T06:00:00.434Z,4.80
2022-08-29T06:01:02.723Z,6.20
2022-08-29T06:02:07.076Z,4.72
2022-08-29T06:03:11.253Z,4.57
2022-08-29T06:04:13.734Z,3.90
2022-08-29T06:05:16.099Z,4.18
2022-08-29T06:06:21.346Z,4.18
2022-08-29T06:07:25.511Z,4.65
2022-08-29T06:08:27.866Z,4.25
2022-08-29T06:09:30.095Z,4.32
2022-08-29T06:10:32.847Z,4.35
2022-08-29T06:11:35.196Z,3.97
2022-08-29T06:12:37.522Z,3.88
2022-08-29T06:13:39.746Z,4.88
2022-08-29T06:14:42.418Z,3.90
2022-08-29T06:15:53.072Z,3.45
2022-08-29T06:16:55.855Z,3.80
2022-08-29T06:17:58.089Z,3.67
2022-08-29T06:19:00.492Z,3.67
2022-08-29T06:20:04.189Z,3.67
2022-08-29T06:21:06.982Z,3.33
2022-08-29T06:22:10.290Z,3.58
2022-08-29T06:23:12.609Z,3.58
2022-08-29T06:24:16.303Z,3.50
2022-08-29T06:25:40.550Z,4.43
2022-08-29T06:26:40.993Z,3.70
2022-08-29T06:27:43.289Z,2.67
2022-08-29T06:28:46.313Z,2.75
2022-08-29T06:29:48.640Z,3.15
2022-08-29T06:30:53.599Z,2.97
2022-08-29T06:31:56.864Z,2.78
2022-08-29T06:33:00.045Z,2.97
2022-08-29T06:34:04.875Z,2.50
2022-08-29T06:35:07.343Z,2.78
2022-08-29T06:36:11.004Z,2.83
2022-08-29T06:37:13.308Z,2.60
2022-08-29T06:38:15.848Z,3.00
2022-08-29T06:39:19.861Z,2.95
2022-08-29T06:40:22.385Z,2.20
2022-08-29T06:41:25.475Z,2.75
2022-08-29T06:42:27.709Z,2.70
2022-08-29T06:43:31.145Z,2.95
2022-08-29T06:44:33.873Z,2.85
2022-08-29T06:45:41.089Z,2.42
2022-08-29T06:46:47.400Z,3.00
2022-08-29T06:47:49.745Z,2.80
2022-08-29T06:48:53.799Z,3.17
2022-08-29T06:50:17.357Z,3.05
2022-08-29T06:51:20.216Z,2.58
2022-08-29T06:52:22.457Z,2.80
2022-08-29T06:53:32.137Z,2.75
2022-08-29T06:54:35.293Z,2.80
2022-08-29T06:55:38.779Z,3.05
2022-08-29T06:56:42.448Z,2.55
2022-08-29T06:57:45.869Z,2.70
2022-08-29T06:58:48.206Z,3.22
2022-08-29T06:59:50.449Z,3.00
2022-08-29T07:00:52.695Z,2.85
2022-08-29T07:01:55.407Z,2.42
2022-08-29T07:02:58.117Z,2.75
2022-08-29T07:04:01.168Z,3.00
2022-08-29T07:05:04.216Z,2.78
2022-08-29T07:06:07.858Z,2.42
2022-08-29T07:07:10.147Z,2.70
2022-08-29T07:08:12.416Z,3.28
2022-08-29T07:09:14.749Z,2.75
2022-08-29T07:10:22.286Z,2.83
2022-08-29T07:11:26.826Z,2.70
2022-08-29T07:12:29.187Z,2.47
2022-08-29T07:13:37.202Z,2.97
2022-08-29T07:14:39.440Z,2.53
2022-08-29T07:15:42.210Z,2.80
2022-08-29T07:16:44.544Z,3.05
2022-08-29T07:17:47.405Z,2.55
2022-08-29T07:18:49.901Z,3.05
2022-08-29T07:19:53.494Z,2.65
2022-08-29T07:20:55.819Z,3.30
2022-08-29T07:21:59.140Z,2.83
2022-08-29T07:23:01.602Z,3.00
2022-08-29T07:24:04.288Z,2.65
2022-08-29T07:25:07.440Z,2.50
2022-08-29T07:26:12.135Z,2.92
2022-08-29T07:27:14.872Z,2.92
2022-08-29T07:28:17.334Z,2.78
2022-08-29T07:29:22.351Z,2.97
2022-08-29T07:30:25.244Z,2.78
2022-08-29T07:31:31.027Z,2.85
2022-08-29T07:32:33.821Z,3.33
2022-08-29T07:33:36.709Z,3.33
2022-08-29T07:34:39.146Z,3.03
2022-08-29T07:35:41.406Z,2.63
2022-08-29T07:36:43.714Z,3.03
2022-08-29T07:37:50.649Z,2.80
2022-08-29T07:38:53.122Z,3.10
2022-08-29T07:39:55.403Z,3.10
2022-08-29T07:41:03.293Z,3.20
2022-08-29T07:42:05.614Z,2.88
2022-08-29T07:43:07.901Z,3.03
2022-08-29T07:44:11.997Z,2.80
2022-08-29T07:45:14.873Z,3.00
2022-08-29T07:46:20.214Z,3.42
2022-08-29T07:47:26.478Z,3.58
2022-08-29T07:48:28.722Z,2.60
2022-08-29T07:49:41.032Z,2.70
2022-08-29T07:50:44.090Z,2.92
2022-08-29T07:51:46.450Z,2.72
2022-08-29T07:52:48.829Z,2.90
2022-08-29T07:53:52.371Z,3.58
2022-08-29T07:54:56.017Z,2.83
2022-08-29T07:55:58.244Z,2.97
2022-08-29T07:57:00.659Z,3.10
2022-08-29T07:58:04.738Z,3.30
2022-08-29T07:59:07.884Z,3.40
2022-08-29T08:00:12.056Z,3.40
2022-08-29T08:01:20.924Z,3.15
2022-08-29T08:02:24.062Z,3.28
2022-08-29T08:03:27.139Z,2.72
2022-08-29T08:04:29.928Z,2.60
2022-08-29T08:05:32.537Z,2.83
2022-08-29T08:06:36.710Z,3.13
2022-08-29T08:07:40.141Z,3.20
2022-08-29T08:08:42.878Z,2.97
2022-08-29T08:09:45.191Z,3.20
2022-08-29T08:10:51.886Z,2.88
2022-08-29T08:11:54.562Z,3.10
2022-08-29T08:12:56.836Z,2.78
2022-08-29T08:13:59.359Z,2.80
2022-08-29T08:15:03.068Z,3.00
2022-08-29T08:16:07.797Z,3.03
2022-08-29T08:17:10.145Z,2.65
2022-08-29T08:18:12.892Z,3.55
2022-08-29T08:19:15.982Z,2.92
2022-08-29T08:20:20.145Z,3.00
2022-08-29T08:21:24.100Z,2.88
2022-08-29T08:22:26.461Z,2.53
2022-08-29T08:23:28.889Z,2.92
2022-08-29T08:24:31.307Z,2.80
2022-08-29T08:25:33.614Z,3.00
2022-08-29T08:26:36.755Z,2.70
2022-08-29T08:27:43.306Z,2.88
2022-08-29T08:28:47.784Z,3.00
2022-08-29T08:29:50.287Z,2.72
2022-08-29T08:30:53.392Z,3.53
2022-08-29T08:31:59.735Z,3.10
2022-08-29T08:33:02.220Z,2.72
2022-08-29T08:34:04.810Z,3.25
2022-08-29T08:35:07.728Z,3.05
2022-08-29T08:36:29.681Z,3.10
2022-08-29T08:37:32.309Z,2.90
2022-08-29T08:38:34.768Z,3.28
2022-08-29T08:39:38.790Z,2.60
2022-08-29T08:40:53.738Z,2.92
2022-08-29T08:42:04.371Z,3.42
2022-08-29T08:43:08.504Z,2.67
2022-08-29T08:44:26.856Z,3.38
2022-08-29T08:45:41.952Z,3.15
2022-08-29T08:46:47.722Z,3.10
2022-08-29T08:47:58.333Z,3.70
2022-08-29T08:49:03.426Z,3.55
2022-08-29T08:50:11.165Z,3.03
2022-08-29T08:51:25.393Z,3.20
2022-08-29T08:52:39.001Z,3.08
2022-08-29T08:53:44.656Z,2.88
2022-08-29T08:54:54.665Z,3.28
2022-08-29T08:55:59.809Z,3.30
2022-08-29T08:57:11.178Z,3.55
2022-08-29T08:58:27.284Z,3.10
2022-08-29T08:59:35.435Z,3.03
2022-08-29T09:00:56.045Z,3.40
2022-08-29T09:02:11.940Z,3.30
2022-08-29T09:03:40.257Z,3.28
2022-08-29T09:05:00.913Z,3.08
2022-08-29T09:06:27.874Z,3.35
2022-08-29T09:07:53.016Z,3.08
2022-08-29T09:09:14.452Z,3.10
2022-08-29T09:10:31.734Z,3.30
2022-08-29T09:11:36.728Z,3.40
2022-08-29T09:12:39.093Z,3.22
2022-08-29T09:14:03.778Z,3.47
2022-08-29T09:15:18.980Z,4.38
2022-08-29T09:16:29.539Z,3.33
2022-08-29T09:17:43.679Z,3.33
2022-08-29T09:18:52.667Z,3.35
2022-08-29T09:19:57.352Z,3.70
2022-08-29T09:21:06.634Z,2.90
2022-08-29T09:22:19.093Z,3.30
2022-08-29T09:23:39.865Z,3.10
2022-08-29T09:24:51.154Z,3.10
2022-08-29T09:25:53.690Z,3.25
2022-08-29T09:26:56.393Z,2.65
2022-08-29T09:27:59.146Z,3.20
2022-08-29T09:29:01.479Z,2.97
2022-08-29T09:30:20.484Z,3.00
2022-08-29T09:31:35.359Z,3.45
2022-08-29T09:32:52.708Z,3.50
2022-08-29T09:33:58.132Z,3.10
2022-08-29T09:35:09.640Z,3.50
2022-08-29T09:36:15.475Z,3.22
2022-08-29T09:37:29.246Z,2.90
2022-08-29T09:38:31.561Z,3.42
2022-08-29T09:39:34.161Z,3.10
2022-08-29T09:40:45.352Z,3.13
2022-08-29T09:41:57.338Z,3.22
2022-08-29T09:43:03.014Z,3.42
2022-08-29T09:44:06.332Z,3.67
2022-08-29T09:45:29.418Z,3.13
2022-08-29T09:46:31.710Z,3.22
2022-08-29T09:47:34.519Z,3.10
2022-08-29T09:48:40.218Z,3.05
2022-08-29T09:50:02.550Z,3.45
2022-08-29T09:51:37.295Z,3.30
2022-08-29T09:52:52.975Z,3.28
2022-08-29T09:54:32.339Z,3.40
2022-08-29T09:55:45.325Z,3.25
2022-08-29T09:56:52.359Z,3.20
2022-08-29T09:58:06.707Z,3.38
2022-08-29T09:59:25.573Z,3.30
2022-08-29T10:00:40.899Z,3.53
2022-08-29T10:01:43.332Z,3.63
2022-08-29T10:02:49.155Z,3.60
2022-08-29T10:03:56.672Z,3.10
2022-08-29T10:05:06.695Z,3.47
2022-08-29T10:06:20.596Z,3.30
2022-08-29T10:07:29.788Z,3.25
2022-08-29T10:08:35.572Z,3.40
2022-08-29T10:09:38.032Z,3.85
2022-08-29T10:10:52.505Z,3.28
2022-08-29T10:12:03.460Z,3.63
2022-08-29T10:13:19.533Z,3.28
2022-08-29T10:14:38.441Z,3.40
2022-08-29T10:15:51.362Z,3.42
2022-08-29T10:18:43.050Z,3.03
2022-08-29T10:19:45.748Z,3.30
2022-08-29T10:21:13.487Z,3.10
2022-08-29T10:22:35.722Z,3.50
2022-08-29T10:23:51.327Z,3.03
2022-08-29T10:25:12.476Z,4.00
2022-08-29T10:26:54.198Z,3.17
2022-08-29T10:28:19.361Z,3.42
2022-08-29T10:29:21.582Z,3.78
2022-08-29T10:30:29.336Z,3.58
2022-08-29T10:31:45.017Z,3.28
2022-08-29T10:32:56.127Z,3.63
2022-08-29T10:34:08.047Z,3.80
2022-08-29T10:35:27.564Z,3.40
2022-08-29T10:36:36.703Z,3.28
2022-08-29T10:37:51.930Z,3.22
2022-08-29T10:39:02.645Z,3.97
2022-08-29T10:40:24.642Z,3.70
2022-08-29T10:41:32.751Z,3.50
2022-08-29T10:42:38.521Z,3.78
2022-08-29T10:43:44.630Z,3.47
2022-08-29T10:45:14.440Z,3.30
2022-08-29T10:46:39.362Z,3.53
2022-08-29T10:48:24.874Z,2.88
2022-08-29T10:49:59.208Z,3.70
2022-08-29T10:51:02.188Z,3.85
2022-08-29T10:52:28.829Z,3.65
2022-08-29T10:53:36.628Z,3.55
2022-08-29T10:54:59.724Z,3.55
2022-08-29T10:56:20.050Z,3.72
2022-08-29T10:57:37.219Z,4.22
2022-08-29T10:58:54.855Z,3.90
2022-08-29T11:00:07.160Z,3.75
2022-08-29T11:03:05.322Z,4.03
2022-08-29T11:04:31.381Z,3.80
2022-08-29T11:05:40.366Z,3.92
2022-08-29T11:06:57.982Z,3.67
2022-08-29T11:08:16.087Z,3.90
2022-08-29T11:09:25.320Z,3.80
2022-08-29T11:10:39.686Z,4.20
2022-08-29T11:11:56.226Z,3.55
2022-08-29T11:13:06.333Z,4.18
2022-08-29T11:14:19.840Z,4.00
2022-08-29T11:15:28.544Z,3.40
2022-08-29T11:16:37.778Z,3.95
2022-08-29T11:17:44.514Z,3.60
2022-08-29T11:19:13.091Z,4.05
2022-08-29T11:20:21.541Z,4.28
2022-08-29T11:21:35.199Z,3.63
2022-08-29T11:23:08.840Z,3.78
2022-08-29T11:24:14.477Z,4.03
2022-08-29T11:25:20.164Z,3.60
2022-08-29T11:26:22.363Z,3.60
2022-08-29T11:27:36.561Z,3.65
2022-08-29T11:29:14.392Z,3.70
2022-08-29T11:30:26.915Z,3.83
2022-08-29T11:31:50.637Z,3.95
2022-08-29T11:33:25.099Z,4.03
2022-08-29T11:34:38.902Z,3.58
2022-08-29T11:36:04.221Z,3.90
2022-08-29T11:37:36.366Z,3.42
2022-08-29T11:39:18.060Z,3.70
2022-08-29T11:43:50.413Z,3.63
2022-08-29T11:44:55.861Z,3.90
2022-08-29T11:46:04.584Z,4.07
2022-08-29T11:47:44.304Z,3.55
2022-08-29T11:48:49.156Z,3.58
2022-08-29T11:49:52.005Z,3.53
2022-08-29T11:52:12.926Z,3.28
2022-08-29T11:53:21.421Z,2.95
2022-08-29T11:54:24.876Z,3.47
2022-08-29T11:55:34.244Z,3.08
2022-08-29T11:56:36.508Z,4.00
2022-08-29T11:57:46.868Z,3.40
2022-08-29T11:58:51.859Z,3.60
2022-08-29T12:00:01.505Z,3.45
2022-08-29T12:01:34.022Z,3.53
2022-08-29T12:02:36.635Z,3.60
2022-08-29T12:03:38.924Z,3.10
2022-08-29T12:04:58.168Z,3.33
2022-08-29T12:06:21.801Z,3.70
2022-08-29T12:07:38.830Z,3.38
2022-08-29T12:08:52.018Z,3.30
2022-08-29T12:09:57.470Z,3.33
2022-08-29T12:11:00.645Z,3.10
2022-08-29T12:12:03.947Z,3.22
2022-08-29T12:13:06.803Z,3.25
2022-08-29T12:14:09.105Z,3.00
2022-08-29T12:15:52.703Z,3.28
2022-08-29T12:16:55.420Z,3.72
2022-08-29T12:18:07.647Z,3.08
2022-08-29T12:19:09.903Z,3.78
2022-08-29T12:20:16.917Z,3.38
2022-08-29T12:21:31.972Z,3.30
2022-08-29T12:22:59.834Z,3.60
2022-08-29T12:24:24.667Z,3.17
2022-08-29T12:25:32.104Z,3.10
2022-08-29T12:26:44.063Z,3.30
2022-08-29T12:28:02.753Z,3.37
2022-08-29T12:29:10.410Z,2.97
2022-08-29T12:30:14.349Z,3.17
2022-08-29T12:31:56.386Z,3.72
2022-08-29T12:33:28.606Z,3.50
2022-08-29T12:34:49.917Z,2.90
2022-08-29T12:36:07.447Z,3.30
2022-08-29T12:37:28.594Z,3.63
2022-08-29T12:38:41.986Z,4.55
2022-08-29T12:40:14.974Z,4.32
2022-08-29T12:41:32.299Z,3.40
2022-08-29T12:42:45.688Z,2.90
2022-08-29T12:43:54.309Z,3.35
2022-08-29T12:45:12.436Z,3.00
2022-08-29T12:46:26.120Z,3.17
2022-08-29T12:48:09.422Z,2.85
2022-08-29T12:49:30.083Z,3.30
2022-08-29T12:50:36.578Z,3.10
2022-08-29T12:51:41.774Z,3.10
2022-08-29T12:52:57.218Z,3.25
2022-08-29T12:53:59.580Z,2.90
2022-08-29T12:55:41.968Z,3.08
2022-08-29T12:56:49.825Z,3.10
2022-08-29T12:57:52.676Z,3.03
2022-08-29T12:58:58.900Z,3.00
2022-08-29T13:00:05.450Z,3.28
2022-08-29T13:01:30.700Z,3.10
2022-08-29T13:02:36.078Z,2.97
2022-08-29T13:03:38.412Z,3.35
2022-08-29T13:04:43.797Z,3.30
2022-08-29T13:05:47.308Z,2.85
2022-08-29T13:07:16.586Z,2.92
2022-08-29T13:08:32.100Z,3.15
2022-08-29T13:09:38.423Z,3.05
2022-08-29T13:10:54.084Z,3.22
2022-08-29T13:12:16.981Z,3.55
2022-08-29T13:14:23.714Z,3.40
2022-08-29T13:15:32.092Z,3.20
2022-08-29T13:16:35.254Z,3.28
2022-08-29T13:17:44.800Z,2.83
2022-08-29T13:19:00.632Z,3.50
2022-08-29T13:20:43.411Z,3.05
2022-08-29T13:21:45.941Z,3.08
2022-08-29T13:22:48.188Z,3.10
2022-08-29T13:24:03.295Z,3.20
2022-08-29T13:25:06.179Z,3.45
2022-08-29T13:26:11.512Z,2.95
2022-08-29T13:27:21.717Z,3.08
2022-08-29T13:28:26.695Z,3.25
2022-08-29T13:29:41.744Z,3.00
2022-08-29T13:30:48.900Z,3.42
2022-08-29T13:32:22.979Z,3.25
2022-08-29T13:33:35.187Z,3.03
2022-08-29T13:34:38.454Z,3.40
2022-08-29T13:35:40.799Z,3.65
2022-08-29T13:37:00.900Z,3.10
2022-08-29T13:38:23.814Z,3.15
2022-08-29T13:39:29.590Z,2.83
2022-08-29T13:40:55.406Z,3.75
2022-08-29T13:41:57.726Z,3.38
2022-08-29T13:43:01.122Z,2.92
2022-08-29T13:44:03.461Z,3.03
2022-08-29T13:45:10.375Z,2.92
2022-08-29T13:46:14.872Z,3.00
2022-08-29T13:47:28.314Z,3.15
2022-08-29T13:48:30.578Z,3.08
2022-08-29T13:49:35.434Z,3.33
2022-08-29T13:50:38.216Z,3.20
2022-08-29T13:51:40.425Z,3.30
2022-08-29T13:52:42.838Z,2.70
2022-08-29T13:53:45.730Z,3.00
2022-08-29T13:54:48.349Z,3.15
2022-08-29T13:55:51.807Z,3.25
2022-08-29T13:56:57.715Z,3.03
2022-08-29T13:58:00.085Z,3.17
2022-08-29T13:59:02.730Z,3.08
2022-08-29T14:00:07.005Z,2.65
2022-08-29T14:02:31.966Z,3.53
2022-08-29T14:03:34.387Z,2.75
2022-08-29T14:04:39.402Z,2.47
2022-08-29T14:05:43.395Z,2.88
2022-08-29T14:06:45.852Z,3.22
2022-08-29T14:07:48.269Z,2.95
2022-08-29T14:08:51.798Z,3.10
2022-08-29T14:09:54.425Z,2.85
2022-08-29T14:10:56.890Z,3.00
2022-08-29T14:12:00.165Z,2.97
2022-08-29T14:13:03.614Z,3.22
2022-08-29T14:14:05.885Z,3.05
2022-08-29T14:15:10.704Z,3.22
2022-08-29T14:16:13.894Z,3.10
2022-08-29T14:17:18.901Z,2.90
2022-08-29T14:18:21.258Z,2.92
2022-08-29T14:19:25.179Z,3.72
2022-08-29T14:20:27.461Z,2.83
2022-08-29T14:21:30.135Z,2.70
2022-08-29T14:22:32.495Z,3.08
2022-08-29T14:23:34.825Z,2.88
2022-08-29T14:24:37.687Z,2.70
2022-08-29T14:25:40.107Z,3.22
2022-08-29T14:26:43.174Z,2.90
2022-08-29T14:27:47.454Z,2.85
2022-08-29T14:28:49.841Z,2.97
2022-08-29T14:29:53.076Z,2.90
2022-08-29T14:30:55.342Z,2.63
2022-08-29T14:31:58.868Z,2.95
2022-08-29T14:33:01.683Z,2.92
2022-08-29T14:34:05.036Z,2.88
2022-08-29T14:35:08.160Z,3.38
2022-08-29T14:36:11.523Z,3.20
2022-08-29T14:37:14.844Z,3.00
2022-08-29T14:38:18.045Z,3.00
2022-08-29T14:39:20.507Z,3.15
2022-08-29T14:40:30.871Z,2.80
2022-08-29T14:41:33.671Z,2.45
2022-08-29T14:42:36.768Z,2.88
2022-08-29T14:43:40.019Z,2.80
2022-08-29T14:44:42.436Z,3.35
2022-08-29T14:45:44.715Z,2.80
2022-08-29T14:46:47.122Z,2.85
2022-08-29T14:47:49.732Z,3.17
2022-08-29T14:48:52.174Z,2.95
2022-08-29T14:49:54.660Z,2.70
2022-08-29T14:50:56.948Z,3.00
2022-08-29T14:51:59.281Z,2.90
2022-08-29T14:53:01.533Z,2.95
2022-08-29T14:54:04.127Z,2.97
2022-08-29T14:55:08.147Z,2.42
2022-08-29T14:56:25.444Z,3.05
2022-08-29T14:57:33.140Z,3.10
2022-08-29T14:58:35.439Z,3.13
2022-08-29T14:59:38.908Z,2.72
2022-08-29T15:00:42.190Z,2.85
2022-08-29T15:01:44.948Z,2.55
2022-08-29T15:02:49.228Z,2.50
2022-08-29T15:03:51.705Z,2.72
2022-08-29T15:04:56.245Z,2.80